^^
Saratoga-Weather Station Historical Data
Daily Summary for July 15, 2021 Units:  Both    English   Metric
Daily Weekly Monthly Yearly Custom
  High: Low: Average:
Temperature: 48.4 °F /  9.1 °C 43.3 °F /  6.3 °C 46.4 °F /  8 °C
Dew Point: 45.3 °F /  7.4 °C 41.5 °F /  5.3 °C 43 °F /  6.1 °C
Humidity: 93% 85% 88%
Wind Speed: 8.1mph /  13km/h - 1.8mph /  2.9km/h
Wind Gust: 11mph /  17.7km/h - -
Wind- - East
Pressure: 30.2 in /  1022.7 hPa 30.2 in /  1021.0 hPa -
Precipitation: 0 in /  0.0 mm    
Historical Graphs
 
 
Tabular Data for July 15, 2021
Time Temperature Dew Point Pressure Wind Wind Speed Wind Gust Humidity Rainfall Rate (Hourly) solar
00:04 48 °F /  8.9 °C 45.1 °F /  7.3 °C 30.2in /  1022.4hPa East 0.9mph /  1.4km/h 6mph /  9.7km/h 90% 0in /  0.0mm 0 W/m2
00:09 48 °F /  8.9 °C 45.1 °F /  7.3 °C 30.2in /  1022.4hPa West 2mph /  3.2km/h 4mph /  6.4km/h 90% 0in /  0.0mm 0 W/m2
00:14 48 °F /  8.9 °C 45.1 °F /  7.3 °C 30.2in /  1022.4hPa NNE 2mph /  3.2km/h 6mph /  9.7km/h 90% 0in /  0.0mm 0 W/m2
00:19 48 °F /  8.9 °C 45.1 °F /  7.3 °C 30.2in /  1022.4hPa NE 0.9mph /  1.4km/h 4mph /  6.4km/h 90% 0in /  0.0mm 0 W/m2
00:24 48 °F /  8.9 °C 45.1 °F /  7.3 °C 30.2in /  1022.4hPa ESE 0.9mph /  1.4km/h 6mph /  9.7km/h 90% 0in /  0.0mm 0 W/m2
00:29 48 °F /  8.9 °C 45.1 °F /  7.3 °C 30.2in /  1022.4hPa East 0.9mph /  1.4km/h 4mph /  6.4km/h 90% 0in /  0.0mm 0 W/m2
00:34 48 °F /  8.9 °C 45.1 °F /  7.3 °C 30.2in /  1022.4hPa Calm   5mph /  8km/h 90% 0in /  0.0mm 0 W/m2
00:39 48 °F /  8.9 °C 45.1 °F /  7.3 °C 30.2in /  1022.0hPa ENE 2.9mph /  4.7km/h 6mph /  9.7km/h 90% 0in /  0.0mm 0 W/m2
00:44 48.2 °F /  9 °C 45.3 °F /  7.4 °C 30.2in /  1022.0hPa North 2mph /  3.2km/h 6mph /  9.7km/h 90% 0in /  0.0mm 0 W/m2
00:49 48.2 °F /  9 °C 45.3 °F /  7.4 °C 30.2in /  1022.0hPa ESE 6mph /  9.7km/h 7mph /  11.3km/h 90% 0in /  0.0mm 0 W/m2
00:54 48.2 °F /  9 °C 45.3 °F /  7.4 °C 30.2in /  1022.0hPa ENE 4.9mph /  7.9km/h 5mph /  8km/h 90% 0in /  0.0mm 0 W/m2
00:59 48 °F /  8.9 °C 45.1 °F /  7.3 °C 30.2in /  1022.0hPa East 0.9mph /  1.4km/h 9mph /  14.5km/h 90% 0in /  0.0mm 0 W/m2
01:04 48 °F /  8.9 °C 45.1 °F /  7.3 °C 30.2in /  1021.7hPa Calm   3mph /  4.8km/h 90% 0in /  0.0mm 0 W/m2
01:09 48 °F /  8.9 °C 45.1 °F /  7.3 °C 30.2in /  1021.7hPa ESE 2mph /  3.2km/h 6mph /  9.7km/h 90% 0in /  0.0mm 0 W/m2
01:14 48 °F /  8.9 °C 45.1 °F /  7.3 °C 30.2in /  1021.7hPa ENE 2mph /  3.2km/h 3mph /  4.8km/h 90% 0in /  0.0mm 0 W/m2
01:19 48 °F /  8.9 °C 45.1 °F /  7.3 °C 30.2in /  1021.7hPa SE 0.9mph /  1.4km/h 3mph /  4.8km/h 90% 0in /  0.0mm 0 W/m2
01:24 48 °F /  8.9 °C 45.1 °F /  7.3 °C 30.2in /  1021.7hPa ESE 0.9mph /  1.4km/h 2mph /  3.2km/h 90% 0in /  0.0mm 0 W/m2
01:29 48 °F /  8.9 °C 45.1 °F /  7.3 °C 30.2in /  1021.7hPa ESE 2mph /  3.2km/h 2mph /  3.2km/h 90% 0in /  0.0mm 0 W/m2
01:34 48 °F /  8.9 °C 45.1 °F /  7.3 °C 30.2in /  1022.0hPa NE 0.9mph /  1.4km/h 3mph /  4.8km/h 90% 0in /  0.0mm 0 W/m2
01:39 48 °F /  8.9 °C 45.1 °F /  7.3 °C 30.2in /  1022.0hPa East 2mph /  3.2km/h 2mph /  3.2km/h 90% 0in /  0.0mm 0 W/m2
01:44 48 °F /  8.9 °C 45.1 °F /  7.3 °C 30.2in /  1022.0hPa ESE 0.9mph /  1.4km/h 3mph /  4.8km/h 90% 0in /  0.0mm 0 W/m2
01:49 48 °F /  8.9 °C 45.1 °F /  7.3 °C 30.2in /  1022.0hPa NNE 0.9mph /  1.4km/h 2mph /  3.2km/h 90% 0in /  0.0mm 0 W/m2
01:54 48 °F /  8.9 °C 45.1 °F /  7.3 °C 30.2in /  1022.0hPa ENE 0.9mph /  1.4km/h 2mph /  3.2km/h 90% 0in /  0.0mm 0 W/m2
01:59 48 °F /  8.9 °C 45.1 °F /  7.3 °C 30.2in /  1022.0hPa East 2mph /  3.2km/h 2mph /  3.2km/h 90% 0in /  0.0mm 0 W/m2
02:04 48 °F /  8.9 °C 45.1 °F /  7.3 °C 30.2in /  1022.0hPa Calm     90% 0in /  0.0mm 0 W/m2
02:09 48 °F /  8.9 °C 45.1 °F /  7.3 °C 30.2in /  1022.0hPa ESE 2mph /  3.2km/h 7mph /  11.3km/h 90% 0in /  0.0mm 0 W/m2
02:14 48 °F /  8.9 °C 45 °F /  7.2 °C 30.2in /  1022.0hPa East 2mph /  3.2km/h 4mph /  6.4km/h 89% 0in /  0.0mm 0 W/m2
02:19 48 °F /  8.9 °C 45 °F /  7.2 °C 30.2in /  1022.0hPa SE 2.9mph /  4.7km/h 5mph /  8km/h 89% 0in /  0.0mm 0 W/m2
02:24 48.2 °F /  9 °C 44.8 °F /  7.1 °C 30.2in /  1022.0hPa Calm   6mph /  9.7km/h 88% 0in /  0.0mm 0 W/m2
02:29 48.2 °F /  9 °C 44.8 °F /  7.1 °C 30.2in /  1022.0hPa East 2.9mph /  4.7km/h 6mph /  9.7km/h 88% 0in /  0.0mm 0 W/m2
02:34 48.2 °F /  9 °C 44.8 °F /  7.1 °C 30.2in /  1022.0hPa ENE 4.9mph /  7.9km/h 6mph /  9.7km/h 88% 0in /  0.0mm 0 W/m2
02:39 48.2 °F /  9 °C 44.6 °F /  7 °C 30.2in /  1022.0hPa East 2mph /  3.2km/h 9mph /  14.5km/h 87% 0in /  0.0mm 0 W/m2
02:44 48.2 °F /  9 °C 44.6 °F /  7 °C 30.2in /  1022.0hPa ESE 2.9mph /  4.7km/h 9mph /  14.5km/h 87% 0in /  0.0mm 0 W/m2
02:50 48.2 °F /  9 °C 44.6 °F /  7 °C 30.2in /  1022.0hPa ESE 2.9mph /  4.7km/h 5mph /  8km/h 87% 0in /  0.0mm 0 W/m2
02:55 48.2 °F /  9 °C 44.6 °F /  7 °C 30.2in /  1022.0hPa East 2.9mph /  4.7km/h 8mph /  12.9km/h 87% 0in /  0.0mm 0 W/m2
03:00 48.4 °F /  9.1 °C 44.4 °F /  6.9 °C 30.2in /  1022.0hPa East 8.1mph /  13km/h 8mph /  12.9km/h 86% 0in /  0.0mm 0 W/m2
03:05 48.4 °F /  9.1 °C 44.4 °F /  6.9 °C 30.2in /  1022.0hPa SSE 4mph /  6.4km/h 8mph /  12.9km/h 86% 0in /  0.0mm 0 W/m2
03:10 48.2 °F /  9 °C 44.2 °F /  6.8 °C 30.2in /  1022.0hPa East 2.9mph /  4.7km/h 8mph /  12.9km/h 86% 0in /  0.0mm 0 W/m2
03:15 48.2 °F /  9 °C 44.2 °F /  6.8 °C 30.2in /  1022.0hPa East 2.9mph /  4.7km/h 4mph /  6.4km/h 86% 0in /  0.0mm 0 W/m2
03:20 48.2 °F /  9 °C 44.2 °F /  6.8 °C 30.2in /  1022.0hPa East 0.9mph /  1.4km/h 6mph /  9.7km/h 86% 0in /  0.0mm 0 W/m2
03:25 48 °F /  8.9 °C 44.1 °F /  6.7 °C 30.2in /  1022.0hPa ESE 2mph /  3.2km/h 10mph /  16.1km/h 86% 0in /  0.0mm 0 W/m2
03:30 48 °F /  8.9 °C 43.7 °F /  6.5 °C 30.2in /  1022.0hPa ENE 4.9mph /  7.9km/h 9mph /  14.5km/h 85% 0in /  0.0mm 0 W/m2
03:35 48 °F /  8.9 °C 43.7 °F /  6.5 °C 30.2in /  1022.0hPa Calm   6mph /  9.7km/h 85% 0in /  0.0mm 0 W/m2
03:40 48 °F /  8.9 °C 44.1 °F /  6.7 °C 30.2in /  1022.0hPa East 4mph /  6.4km/h 4mph /  6.4km/h 86% 0in /  0.0mm 0 W/m2
03:45 48 °F /  8.9 °C 44.1 °F /  6.7 °C 30.2in /  1022.0hPa ESE 2.9mph /  4.7km/h 11mph /  17.7km/h 86% 0in /  0.0mm 0 W/m2
03:50 47.8 °F /  8.8 °C 43.5 °F /  6.4 °C 30.2in /  1022.0hPa SE 8.1mph /  13km/h 10mph /  16.1km/h 85% 0in /  0.0mm 0 W/m2
03:55 47.8 °F /  8.8 °C 43.5 °F /  6.4 °C 30.2in /  1022.0hPa East 2.9mph /  4.7km/h 8mph /  12.9km/h 85% 0in /  0.0mm 0 W/m2
04:00 47.8 °F /  8.8 °C 43.5 °F /  6.4 °C 30.2in /  1022.0hPa East 2.9mph /  4.7km/h 6mph /  9.7km/h 85% 0in /  0.0mm 0 W/m2
04:05 47.8 °F /  8.8 °C 43.9 °F /  6.6 °C 30.2in /  1022.0hPa East 2.9mph /  4.7km/h 4mph /  6.4km/h 86% 0in /  0.0mm 0 W/m2
04:10 47.7 °F /  8.7 °C 43.7 °F /  6.5 °C 30.2in /  1022.0hPa ENE 2mph /  3.2km/h 5mph /  8km/h 86% 0in /  0.0mm 0 W/m2
04:15 47.7 °F /  8.7 °C 43.7 °F /  6.5 °C 30.2in /  1022.0hPa East 8.1mph /  13km/h 9mph /  14.5km/h 86% 0in /  0.0mm 0 W/m2
04:20 47.7 °F /  8.7 °C 43.7 °F /  6.5 °C 30.2in /  1022.0hPa East 2mph /  3.2km/h 6mph /  9.7km/h 86% 0in /  0.0mm 0 W/m2
04:25 47.7 °F /  8.7 °C 43.7 °F /  6.5 °C 30.2in /  1022.0hPa ENE 0.9mph /  1.4km/h 9mph /  14.5km/h 86% 0in /  0.0mm 0 W/m2
04:30 47.5 °F /  8.6 °C 43.5 °F /  6.4 °C 30.2in /  1022.0hPa NE 2mph /  3.2km/h 10mph /  16.1km/h 86% 0in /  0.0mm 0 W/m2
04:35 47.5 °F /  8.6 °C 43.5 °F /  6.4 °C 30.2in /  1022.0hPa SE 4mph /  6.4km/h 8mph /  12.9km/h 86% 0in /  0.0mm 0 W/m2
04:40 47.5 °F /  8.6 °C 43.2 °F /  6.2 °C 30.2in /  1022.0hPa East 2.9mph /  4.7km/h 8mph /  12.9km/h 85% 0in /  0.0mm 0 W/m2
04:45 47.5 °F /  8.6 °C 43.2 °F /  6.2 °C 30.2in /  1022.0hPa SE 4mph /  6.4km/h 5mph /  8km/h 85% 0in /  0.0mm 0 W/m2
04:50 47.5 °F /  8.6 °C 43.2 °F /  6.2 °C 30.2in /  1022.0hPa East 2mph /  3.2km/h 6mph /  9.7km/h 85% 0in /  0.0mm 0 W/m2
04:55 47.5 °F /  8.6 °C 43.2 °F /  6.2 °C 30.2in /  1022.0hPa ESE 4mph /  6.4km/h 7mph /  11.3km/h 85% 0in /  0.0mm 0 W/m2
05:00 47.3 °F /  8.5 °C 43 °F /  6.1 °C 30.2in /  1022.0hPa Calm   4mph /  6.4km/h 85% 0in /  0.0mm 0 W/m2
05:05 47.3 °F /  8.5 °C 43.3 °F /  6.3 °C 30.2in /  1022.0hPa ENE 4mph /  6.4km/h 10mph /  16.1km/h 86% 0in /  0.0mm 0 W/m2
05:10 47.1 °F /  8.4 °C 43.2 °F /  6.2 °C 30.2in /  1022.0hPa East 4mph /  6.4km/h 4mph /  6.4km/h 86% 0in /  0.0mm 0 W/m2
05:15 47.1 °F /  8.4 °C 43.2 °F /  6.2 °C 30.2in /  1022.0hPa East 2mph /  3.2km/h 10mph /  16.1km/h 86% 0in /  0.0mm 0 W/m2
05:20 47.1 °F /  8.4 °C 43.2 °F /  6.2 °C 30.2in /  1022.0hPa ESE 2mph /  3.2km/h 4mph /  6.4km/h 86% 0in /  0.0mm 0 W/m2
05:25 47.1 °F /  8.4 °C 43.2 °F /  6.2 °C 30.2in /  1022.0hPa East 2mph /  3.2km/h 10mph /  16.1km/h 86% 0in /  0.0mm 0 W/m2
05:30 46.9 °F /  8.3 °C 43 °F /  6.1 °C 30.2in /  1022.0hPa Calm   4mph /  6.4km/h 86% 0in /  0.0mm 0 W/m2
05:35 46.9 °F /  8.3 °C 43 °F /  6.1 °C 30.2in /  1021.7hPa NE 6.9mph /  11.1km/h 10mph /  16.1km/h 86% 0in /  0.0mm 0 W/m2
05:40 46.9 °F /  8.3 °C 43 °F /  6.1 °C 30.2in /  1022.0hPa ENE 0.9mph /  1.4km/h 6mph /  9.7km/h 86% 0in /  0.0mm 0 W/m2
05:45 46.9 °F /  8.3 °C 43 °F /  6.1 °C 30.2in /  1022.0hPa ENE 4mph /  6.4km/h 9mph /  14.5km/h 86% 0in /  0.0mm 0 W/m2
05:50 46.9 °F /  8.3 °C 42.6 °F /  5.9 °C 30.2in /  1022.0hPa ESE 2.9mph /  4.7km/h 6mph /  9.7km/h 85% 0in /  0.0mm 0 W/m2
05:55 46.9 °F /  8.3 °C 42.6 °F /  5.9 °C 30.2in /  1022.0hPa ESE 4mph /  6.4km/h 6mph /  9.7km/h 85% 0in /  0.0mm 0 W/m2
06:00 46.9 °F /  8.3 °C 42.6 °F /  5.9 °C 30.2in /  1021.7hPa East 6mph /  9.7km/h 9mph /  14.5km/h 85% 0in /  0.0mm 0 W/m2
06:05 46.9 °F /  8.3 °C 42.6 °F /  5.9 °C 30.2in /  1021.7hPa ENE 2.9mph /  4.7km/h 8mph /  12.9km/h 85% 0in /  0.0mm 0 W/m2
06:10 46.9 °F /  8.3 °C 42.6 °F /  5.9 °C 30.2in /  1021.7hPa ESE 2.9mph /  4.7km/h 7mph /  11.3km/h 85% 0in /  0.0mm 0 W/m2
06:15 46.9 °F /  8.3 °C 42.6 °F /  5.9 °C 30.2in /  1021.7hPa NE 4mph /  6.4km/h 10mph /  16.1km/h 85% 0in /  0.0mm 0 W/m2
06:20 46.8 °F /  8.2 °C 42.4 °F /  5.8 °C 30.2in /  1021.7hPa NE 6mph /  9.7km/h 10mph /  16.1km/h 85% 0in /  0.0mm 0 W/m2
06:25 46.8 °F /  8.2 °C 42.4 °F /  5.8 °C 30.2in /  1021.7hPa East 6.9mph /  11.1km/h 9mph /  14.5km/h 85% 0in /  0.0mm 0 W/m2
06:30 46.8 °F /  8.2 °C 42.4 °F /  5.8 °C 30.2in /  1022.0hPa SE 4.9mph /  7.9km/h 10mph /  16.1km/h 85% 0in /  0.0mm 0 W/m2
06:35 46.8 °F /  8.2 °C 42.4 °F /  5.8 °C 30.2in /  1022.0hPa East 0.9mph /  1.4km/h 3mph /  4.8km/h 85% 0in /  0.0mm 0 W/m2
06:40 46.8 °F /  8.2 °C 42.4 °F /  5.8 °C 30.2in /  1021.7hPa ENE 4mph /  6.4km/h 7mph /  11.3km/h 85% 0in /  0.0mm 0 W/m2
06:45 46.8 °F /  8.2 °C 42.4 °F /  5.8 °C 30.2in /  1022.0hPa NE 2.9mph /  4.7km/h 5mph /  8km/h 85% 0in /  0.0mm 0 W/m2
06:50 46.8 °F /  8.2 °C 42.4 °F /  5.8 °C 30.2in /  1022.0hPa ESE 6mph /  9.7km/h 6mph /  9.7km/h 85% 0in /  0.0mm 0 W/m2
06:55 46.6 °F /  8.1 °C 42.3 °F /  5.7 °C 30.2in /  1022.0hPa WNW 2mph /  3.2km/h 8mph /  12.9km/h 85% 0in /  0.0mm 0 W/m2
07:00 46.6 °F /  8.1 °C 42.3 °F /  5.7 °C 30.2in /  1022.0hPa ESE 0.9mph /  1.4km/h 3mph /  4.8km/h 85% 0in /  0.0mm 0 W/m2
07:05 46.6 °F /  8.1 °C 42.6 °F /  5.9 °C 30.2in /  1022.0hPa ENE 4mph /  6.4km/h 4mph /  6.4km/h 86% 0in /  0.0mm 0 W/m2
07:10 46.6 °F /  8.1 °C 42.6 °F /  5.9 °C 30.2in /  1022.0hPa NE 0.9mph /  1.4km/h 3mph /  4.8km/h 86% 0in /  0.0mm 0 W/m2
07:15 46.6 °F /  8.1 °C 42.6 °F /  5.9 °C 30.2in /  1022.0hPa East 0.9mph /  1.4km/h 11mph /  17.7km/h 86% 0in /  0.0mm 0 W/m2
07:20 46.6 °F /  8.1 °C 42.6 °F /  5.9 °C 30.2in /  1022.4hPa SSE 0.9mph /  1.4km/h 5mph /  8km/h 86% 0in /  0.0mm 0 W/m2
07:25 46.6 °F /  8.1 °C 42.6 °F /  5.9 °C 30.2in /  1022.0hPa ENE 2mph /  3.2km/h 11mph /  17.7km/h 86% 0in /  0.0mm 0 W/m2
07:30 46.6 °F /  8.1 °C 42.6 °F /  5.9 °C 30.2in /  1022.0hPa ENE 2mph /  3.2km/h 4mph /  6.4km/h 86% 0in /  0.0mm 0 W/m2
07:35 46.6 °F /  8.1 °C 42.6 °F /  5.9 °C 30.2in /  1022.4hPa East 0.9mph /  1.4km/h 8mph /  12.9km/h 86% 0in /  0.0mm 0 W/m2
07:40 46.6 °F /  8.1 °C 42.6 °F /  5.9 °C 30.2in /  1022.4hPa ENE 4mph /  6.4km/h 6mph /  9.7km/h 86% 0in /  0.0mm 0 W/m2
07:45 46.6 °F /  8.1 °C 42.6 °F /  5.9 °C 30.2in /  1022.0hPa ENE 0.9mph /  1.4km/h 5mph /  8km/h 86% 0in /  0.0mm 0 W/m2
07:50 46.6 °F /  8.1 °C 42.6 °F /  5.9 °C 30.2in /  1022.4hPa ENE 0.9mph /  1.4km/h 6mph /  9.7km/h 86% 0in /  0.0mm 0 W/m2
07:55 46.4 °F /  8 °C 42.4 °F /  5.8 °C 30.2in /  1022.4hPa Calm   2mph /  3.2km/h 86% 0in /  0.0mm 0 W/m2
08:00 46.4 °F /  8 °C 42.8 °F /  6 °C 30.2in /  1022.4hPa NNE 2mph /  3.2km/h 7mph /  11.3km/h 87% 0in /  0.0mm 0 W/m2
08:05 46.4 °F /  8 °C 42.8 °F /  6 °C 30.2in /  1022.4hPa East 2mph /  3.2km/h 5mph /  8km/h 87% 0in /  0.0mm 0 W/m2
08:10 46.4 °F /  8 °C 42.8 °F /  6 °C 30.2in /  1022.4hPa Calm   6mph /  9.7km/h 87% 0in /  0.0mm 0 W/m2
08:15 46.4 °F /  8 °C 42.8 °F /  6 °C 30.2in /  1022.4hPa Calm   4mph /  6.4km/h 87% 0in /  0.0mm 0 W/m2
08:20 46.2 °F /  7.9 °C 42.6 °F /  5.9 °C 30.2in /  1022.4hPa Calm   3mph /  4.8km/h 87% 0in /  0.0mm 5 W/m2
08:25 46.4 °F /  8 °C 42.8 °F /  6 °C 30.2in /  1022.4hPa Calm   2mph /  3.2km/h 87% 0in /  0.0mm 7 W/m2
08:30 46.2 °F /  7.9 °C 42.6 °F /  5.9 °C 30.2in /  1022.4hPa ENE 0.9mph /  1.4km/h 4mph /  6.4km/h 87% 0in /  0.0mm 5 W/m2
08:35 46.2 °F /  7.9 °C 42.6 °F /  5.9 °C 30.2in /  1022.4hPa NNE 2mph /  3.2km/h 3mph /  4.8km/h 87% 0in /  0.0mm 7 W/m2
08:40 46.2 °F /  7.9 °C 42.6 °F /  5.9 °C 30.2in /  1022.4hPa ENE 0.9mph /  1.4km/h 4mph /  6.4km/h 87% 0in /  0.0mm 7 W/m2
08:45 46.2 °F /  7.9 °C 42.6 °F /  5.9 °C 30.2in /  1022.4hPa East 0.9mph /  1.4km/h 3mph /  4.8km/h 87% 0in /  0.0mm 9 W/m2
08:50 46.2 °F /  7.9 °C 42.8 °F /  6 °C 30.2in /  1022.4hPa ENE 0.9mph /  1.4km/h 2mph /  3.2km/h 88% 0in /  0.0mm 11 W/m2
08:55 46.2 °F /  7.9 °C 42.8 °F /  6 °C 30.2in /  1022.7hPa East 0.9mph /  1.4km/h 3mph /  4.8km/h 88% 0in /  0.0mm 11 W/m2
09:00 46.2 °F /  7.9 °C 42.8 °F /  6 °C 30.2in /  1022.7hPa ESE 0.9mph /  1.4km/h 3mph /  4.8km/h 88% 0in /  0.0mm 11 W/m2
09:05 46.2 °F /  7.9 °C 42.8 °F /  6 °C 30.2in /  1022.7hPa SE 0.9mph /  1.4km/h 3mph /  4.8km/h 88% 0in /  0.0mm 11 W/m2
09:10 46.2 °F /  7.9 °C 42.8 °F /  6 °C 30.2in /  1022.7hPa East 2mph /  3.2km/h 4mph /  6.4km/h 88% 0in /  0.0mm 11 W/m2
09:15 46.2 °F /  7.9 °C 42.8 °F /  6 °C 30.2in /  1022.4hPa East 0.9mph /  1.4km/h 2mph /  3.2km/h 88% 0in /  0.0mm 12 W/m2
09:20 46.2 °F /  7.9 °C 42.8 °F /  6 °C 30.2in /  1022.4hPa ESE 0.9mph /  1.4km/h 4mph /  6.4km/h 88% 0in /  0.0mm 14 W/m2
09:25 46.2 °F /  7.9 °C 42.8 °F /  6 °C 30.2in /  1022.4hPa ENE 0.9mph /  1.4km/h 3mph /  4.8km/h 88% 0in /  0.0mm 14 W/m2
09:30 46.2 °F /  7.9 °C 42.8 °F /  6 °C 30.2in /  1022.7hPa ENE 2mph /  3.2km/h 3mph /  4.8km/h 88% 0in /  0.0mm 19 W/m2
09:35 46.2 °F /  7.9 °C 42.8 °F /  6 °C 30.2in /  1022.7hPa East 2mph /  3.2km/h 2mph /  3.2km/h 88% 0in /  0.0mm 19 W/m2
09:40 46.2 °F /  7.9 °C 42.8 °F /  6 °C 30.2in /  1022.7hPa NE 2mph /  3.2km/h 4mph /  6.4km/h 88% 0in /  0.0mm 19 W/m2
09:45 46.2 °F /  7.9 °C 42.8 °F /  6 °C 30.2in /  1022.7hPa East 0.9mph /  1.4km/h 4mph /  6.4km/h 88% 0in /  0.0mm 19 W/m2
09:50 46.2 °F /  7.9 °C 42.8 °F /  6 °C 30.2in /  1022.7hPa ENE 2mph /  3.2km/h 3mph /  4.8km/h 88% 0in /  0.0mm 19 W/m2
09:55 46.2 °F /  7.9 °C 42.8 °F /  6 °C 30.2in /  1022.7hPa WNW 0.9mph /  1.4km/h 6mph /  9.7km/h 88% 0in /  0.0mm 23 W/m2
10:01 46.2 °F /  7.9 °C 42.6 °F /  5.9 °C 30.2in /  1022.7hPa ENE 6.9mph /  11.1km/h 7mph /  11.3km/h 87% 0in /  0.0mm 25 W/m2
10:06 46.4 °F /  8 °C 42.8 °F /  6 °C 30.2in /  1022.7hPa ENE 2.9mph /  4.7km/h 4mph /  6.4km/h 87% 0in /  0.0mm 23 W/m2
10:11 46.4 °F /  8 °C 42.8 °F /  6 °C 30.2in /  1022.7hPa East 2mph /  3.2km/h 2mph /  3.2km/h 87% 0in /  0.0mm 25 W/m2
10:16 46.6 °F /  8.1 °C 43 °F /  6.1 °C 30.2in /  1022.4hPa ENE 2.9mph /  4.7km/h 4mph /  6.4km/h 87% 0in /  0.0mm 25 W/m2
10:21 46.4 °F /  8 °C 42.8 °F /  6 °C 30.2in /  1022.7hPa NE 4mph /  6.4km/h 5mph /  8km/h 87% 0in /  0.0mm 26 W/m2
10:26 46.6 °F /  8.1 °C 43 °F /  6.1 °C 30.2in /  1022.4hPa ESE 2.9mph /  4.7km/h 9mph /  14.5km/h 87% 0in /  0.0mm 28 W/m2
10:31 46.6 °F /  8.1 °C 43 °F /  6.1 °C 30.2in /  1022.7hPa NE 2mph /  3.2km/h 5mph /  8km/h 87% 0in /  0.0mm 26 W/m2
10:36 46.6 °F /  8.1 °C 43 °F /  6.1 °C 30.2in /  1022.7hPa Calm   8mph /  12.9km/h 87% 0in /  0.0mm 28 W/m2
10:41 46.6 °F /  8.1 °C 43 °F /  6.1 °C 30.2in /  1022.7hPa SE 0.9mph /  1.4km/h 3mph /  4.8km/h 87% 0in /  0.0mm 28 W/m2
10:46 46.6 °F /  8.1 °C 43 °F /  6.1 °C 30.2in /  1022.4hPa NE 0.9mph /  1.4km/h 3mph /  4.8km/h 87% 0in /  0.0mm 32 W/m2
10:51 46.6 °F /  8.1 °C 43 °F /  6.1 °C 30.2in /  1022.4hPa NE 2mph /  3.2km/h 5mph /  8km/h 87% 0in /  0.0mm 37 W/m2
10:56 46.6 °F /  8.1 °C 43 °F /  6.1 °C 30.2in /  1022.4hPa East 2mph /  3.2km/h 7mph /  11.3km/h 87% 0in /  0.0mm 33 W/m2
11:01 46.8 °F /  8.2 °C 43.2 °F /  6.2 °C 30.2in /  1022.4hPa Calm   3mph /  4.8km/h 87% 0in /  0.0mm 33 W/m2
11:06 46.8 °F /  8.2 °C 43.2 °F /  6.2 °C 30.2in /  1022.7hPa Calm   7mph /  11.3km/h 87% 0in /  0.0mm 33 W/m2
11:11 46.8 °F /  8.2 °C 43.2 °F /  6.2 °C 30.2in /  1022.7hPa NE 4mph /  6.4km/h 4mph /  6.4km/h 87% 0in /  0.0mm 35 W/m2
11:16 46.8 °F /  8.2 °C 43.2 °F /  6.2 °C 30.2in /  1022.7hPa NE 0.9mph /  1.4km/h 3mph /  4.8km/h 87% 0in /  0.0mm 40 W/m2
11:21 46.8 °F /  8.2 °C 43.2 °F /  6.2 °C 30.2in /  1022.7hPa SE 2mph /  3.2km/h 6mph /  9.7km/h 87% 0in /  0.0mm 44 W/m2
11:26 46.8 °F /  8.2 °C 43.2 °F /  6.2 °C 30.2in /  1022.7hPa Calm   2mph /  3.2km/h 87% 0in /  0.0mm 39 W/m2
11:31 46.8 °F /  8.2 °C 43.2 °F /  6.2 °C 30.2in /  1022.7hPa ENE 0.9mph /  1.4km/h 5mph /  8km/h 87% 0in /  0.0mm 44 W/m2
11:36 46.8 °F /  8.2 °C 42.8 °F /  6 °C 30.2in /  1022.7hPa ENE 2mph /  3.2km/h 7mph /  11.3km/h 86% 0in /  0.0mm 42 W/m2
11:41 46.9 °F /  8.3 °C 43 °F /  6.1 °C 30.2in /  1022.4hPa NNE 2.9mph /  4.7km/h 3mph /  4.8km/h 86% 0in /  0.0mm 40 W/m2
11:46 46.8 °F /  8.2 °C 42.8 °F /  6 °C 30.2in /  1022.4hPa Calm   3mph /  4.8km/h 86% 0in /  0.0mm 37 W/m2
11:51 46.9 °F /  8.3 °C 43 °F /  6.1 °C 30.2in /  1022.4hPa ENE 4.9mph /  7.9km/h 5mph /  8km/h 86% 0in /  0.0mm 33 W/m2
11:56 46.9 °F /  8.3 °C 43 °F /  6.1 °C 30.2in /  1022.4hPa East 2mph /  3.2km/h 8mph /  12.9km/h 86% 0in /  0.0mm 37 W/m2
12:01 46.9 °F /  8.3 °C 43 °F /  6.1 °C 30.2in /  1022.4hPa East 2mph /  3.2km/h 4mph /  6.4km/h 86% 0in /  0.0mm 35 W/m2
12:06 46.9 °F /  8.3 °C 43 °F /  6.1 °C 30.2in /  1022.4hPa NE 0.9mph /  1.4km/h 3mph /  4.8km/h 86% 0in /  0.0mm 35 W/m2
12:11 46.9 °F /  8.3 °C 43 °F /  6.1 °C 30.2in /  1022.4hPa East 2.9mph /  4.7km/h 3mph /  4.8km/h 86% 0in /  0.0mm 40 W/m2
12:16 46.9 °F /  8.3 °C 43 °F /  6.1 °C 30.2in /  1022.4hPa ENE 2.9mph /  4.7km/h 7mph /  11.3km/h 86% 0in /  0.0mm 44 W/m2
12:21 46.9 °F /  8.3 °C 43 °F /  6.1 °C 30.2in /  1022.4hPa East 2.9mph /  4.7km/h 5mph /  8km/h 86% 0in /  0.0mm 40 W/m2
12:26 46.9 °F /  8.3 °C 43 °F /  6.1 °C 30.2in /  1022.0hPa ENE 2mph /  3.2km/h 9mph /  14.5km/h 86% 0in /  0.0mm 37 W/m2
12:31 46.9 °F /  8.3 °C 43 °F /  6.1 °C 30.2in /  1022.0hPa ENE 0.9mph /  1.4km/h 3mph /  4.8km/h 86% 0in /  0.0mm 39 W/m2
12:36 46.9 °F /  8.3 °C 43 °F /  6.1 °C 30.2in /  1022.0hPa Calm   9mph /  14.5km/h 86% 0in /  0.0mm 40 W/m2
12:41 46.9 °F /  8.3 °C 43 °F /  6.1 °C 30.2in /  1022.0hPa ENE 4mph /  6.4km/h 6mph /  9.7km/h 86% 0in /  0.0mm 39 W/m2
12:46 46.9 °F /  8.3 °C 43 °F /  6.1 °C 30.2in /  1022.0hPa Calm   6mph /  9.7km/h 86% 0in /  0.0mm 35 W/m2
12:51 46.9 °F /  8.3 °C 43 °F /  6.1 °C 30.2in /  1022.0hPa NE 0.9mph /  1.4km/h 4mph /  6.4km/h 86% 0in /  0.0mm 28 W/m2
12:56 46.9 °F /  8.3 °C 43.3 °F /  6.3 °C 30.2in /  1022.0hPa ESE 2mph /  3.2km/h 2mph /  3.2km/h 87% 0in /  0.0mm 26 W/m2
13:01 46.9 °F /  8.3 °C 43.3 °F /  6.3 °C 30.2in /  1022.0hPa East 2.9mph /  4.7km/h 3mph /  4.8km/h 87% 0in /  0.0mm 25 W/m2
13:06 46.9 °F /  8.3 °C 43.3 °F /  6.3 °C 30.2in /  1022.0hPa ENE 2.9mph /  4.7km/h 4mph /  6.4km/h 87% 0in /  0.0mm 26 W/m2
13:11 46.9 °F /  8.3 °C 43.3 °F /  6.3 °C 30.2in /  1022.0hPa East 2mph /  3.2km/h 3mph /  4.8km/h 87% 0in /  0.0mm 30 W/m2
13:16 46.9 °F /  8.3 °C 43.3 °F /  6.3 °C 30.2in /  1021.7hPa East 2.9mph /  4.7km/h 6mph /  9.7km/h 87% 0in /  0.0mm 28 W/m2
13:21 46.9 °F /  8.3 °C 43.3 °F /  6.3 °C 30.2in /  1021.7hPa SE 0.9mph /  1.4km/h 3mph /  4.8km/h 87% 0in /  0.0mm 26 W/m2
13:26 46.9 °F /  8.3 °C 43.3 °F /  6.3 °C 30.2in /  1021.7hPa ENE 2mph /  3.2km/h 6mph /  9.7km/h 87% 0in /  0.0mm 30 W/m2
13:31 46.9 °F /  8.3 °C 43.3 °F /  6.3 °C 30.2in /  1021.7hPa East 2mph /  3.2km/h 2mph /  3.2km/h 87% 0in /  0.0mm 35 W/m2
13:36 46.9 °F /  8.3 °C 43.3 °F /  6.3 °C 30.2in /  1021.7hPa NNE 2mph /  3.2km/h 6mph /  9.7km/h 87% 0in /  0.0mm 30 W/m2
13:41 46.9 °F /  8.3 °C 43.3 °F /  6.3 °C 30.2in /  1021.7hPa ENE 2mph /  3.2km/h 3mph /  4.8km/h 87% 0in /  0.0mm 28 W/m2
13:46 46.9 °F /  8.3 °C 43.3 °F /  6.3 °C 30.2in /  1021.7hPa NE 6mph /  9.7km/h 10mph /  16.1km/h 87% 0in /  0.0mm 30 W/m2
13:51 46.9 °F /  8.3 °C 43.3 °F /  6.3 °C 30.2in /  1021.7hPa East 2mph /  3.2km/h 5mph /  8km/h 87% 0in /  0.0mm 33 W/m2
13:56 46.8 °F /  8.2 °C 43.2 °F /  6.2 °C 30.2in /  1021.3hPa ESE 2mph /  3.2km/h 10mph /  16.1km/h 87% 0in /  0.0mm 30 W/m2
14:01 46.9 °F /  8.3 °C 43.3 °F /  6.3 °C 30.2in /  1021.3hPa ESE 2.9mph /  4.7km/h 5mph /  8km/h 87% 0in /  0.0mm 30 W/m2
14:06 46.9 °F /  8.3 °C 43.3 °F /  6.3 °C 30.2in /  1021.3hPa ENE 0.9mph /  1.4km/h 3mph /  4.8km/h 87% 0in /  0.0mm 28 W/m2
14:11 46.9 °F /  8.3 °C 43.3 °F /  6.3 °C 30.2in /  1021.3hPa East 2mph /  3.2km/h 8mph /  12.9km/h 87% 0in /  0.0mm 26 W/m2
14:16 46.9 °F /  8.3 °C 43.3 °F /  6.3 °C 30.2in /  1021.3hPa Calm   2mph /  3.2km/h 87% 0in /  0.0mm 28 W/m2
14:21 46.9 °F /  8.3 °C 43.3 °F /  6.3 °C 30.2in /  1021.3hPa Calm   2mph /  3.2km/h 87% 0in /  0.0mm 26 W/m2
14:26 46.9 °F /  8.3 °C 43.3 °F /  6.3 °C 30.2in /  1021.3hPa ENE 0.9mph /  1.4km/h 6mph /  9.7km/h 87% 0in /  0.0mm 32 W/m2
14:31 46.9 °F /  8.3 °C 43.3 °F /  6.3 °C 30.2in /  1021.3hPa NNE 0.9mph /  1.4km/h 6mph /  9.7km/h 87% 0in /  0.0mm 25 W/m2
14:36 46.8 °F /  8.2 °C 43.2 °F /  6.2 °C 30.2in /  1021.3hPa North 0.9mph /  1.4km/h 5mph /  8km/h 87% 0in /  0.0mm 25 W/m2
14:41 46.8 °F /  8.2 °C 43.2 °F /  6.2 °C 30.2in /  1021.0hPa NE 2mph /  3.2km/h 7mph /  11.3km/h 87% 0in /  0.0mm 25 W/m2
14:46 46.8 °F /  8.2 °C 43.2 °F /  6.2 °C 30.2in /  1021.0hPa NNE 2mph /  3.2km/h 4mph /  6.4km/h 87% 0in /  0.0mm 25 W/m2
14:51 46.8 °F /  8.2 °C 43.2 °F /  6.2 °C 30.2in /  1021.0hPa ESE 4mph /  6.4km/h 4mph /  6.4km/h 87% 0in /  0.0mm 21 W/m2
14:56 46.8 °F /  8.2 °C 43.2 °F /  6.2 °C 30.2in /  1021.0hPa ENE 2.9mph /  4.7km/h 4mph /  6.4km/h 87% 0in /  0.0mm 19 W/m2
15:01 46.8 °F /  8.2 °C 43.2 °F /  6.2 °C 30.2in /  1021.0hPa East 6mph /  9.7km/h 6mph /  9.7km/h 87% 0in /  0.0mm 19 W/m2
15:06 46.8 °F /  8.2 °C 43.2 °F /  6.2 °C 30.2in /  1021.0hPa ESE 0.9mph /  1.4km/h 4mph /  6.4km/h 87% 0in /  0.0mm 16 W/m2
15:11 46.8 °F /  8.2 °C 43.2 °F /  6.2 °C 30.2in /  1021.3hPa Calm   1mph /  1.6km/h 87% 0in /  0.0mm 14 W/m2
15:16 46.8 °F /  8.2 °C 43.2 °F /  6.2 °C 30.2in /  1021.3hPa ENE 2mph /  3.2km/h 6mph /  9.7km/h 87% 0in /  0.0mm 14 W/m2
15:22 46.8 °F /  8.2 °C 43.2 °F /  6.2 °C 30.2in /  1021.3hPa East 2mph /  3.2km/h 7mph /  11.3km/h 87% 0in /  0.0mm 14 W/m2
15:27 46.8 °F /  8.2 °C 43.2 °F /  6.2 °C 30.2in /  1021.3hPa East 0.9mph /  1.4km/h 4mph /  6.4km/h 87% 0in /  0.0mm 12 W/m2
15:32 46.8 °F /  8.2 °C 43.2 °F /  6.2 °C 30.2in /  1021.3hPa ENE 2mph /  3.2km/h 6mph /  9.7km/h 87% 0in /  0.0mm 12 W/m2
15:37 46.6 °F /  8.1 °C 43 °F /  6.1 °C 30.2in /  1021.3hPa ESE 2mph /  3.2km/h 5mph /  8km/h 87% 0in /  0.0mm 9 W/m2
15:42 46.6 °F /  8.1 °C 43 °F /  6.1 °C 30.2in /  1021.3hPa NE 2.9mph /  4.7km/h 5mph /  8km/h 87% 0in /  0.0mm 7 W/m2
15:47 46.6 °F /  8.1 °C 43.2 °F /  6.2 °C 30.2in /  1021.3hPa ENE 0.9mph /  1.4km/h 4mph /  6.4km/h 88% 0in /  0.0mm 7 W/m2
15:52 46.6 °F /  8.1 °C 43.2 °F /  6.2 °C 30.2in /  1021.3hPa ENE 0.9mph /  1.4km/h 2mph /  3.2km/h 88% 0in /  0.0mm 7 W/m2
15:57 46.6 °F /  8.1 °C 43.2 °F /  6.2 °C 30.2in /  1021.3hPa ENE 0.9mph /  1.4km/h 3mph /  4.8km/h 88% 0in /  0.0mm 7 W/m2
16:02 46.4 °F /  8 °C 43 °F /  6.1 °C 30.2in /  1021.3hPa ENE 0.9mph /  1.4km/h 3mph /  4.8km/h 88% 0in /  0.0mm 5 W/m2
16:07 46.4 °F /  8 °C 43 °F /  6.1 °C 30.2in /  1021.3hPa East 2mph /  3.2km/h 6mph /  9.7km/h 88% 0in /  0.0mm 5 W/m2
16:12 46.4 °F /  8 °C 43 °F /  6.1 °C 30.2in /  1021.3hPa East 2mph /  3.2km/h 4mph /  6.4km/h 88% 0in /  0.0mm 5 W/m2
16:17 46.2 °F /  7.9 °C 42.8 °F /  6 °C 30.2in /  1021.3hPa East 2mph /  3.2km/h 6mph /  9.7km/h 88% 0in /  0.0mm 0 W/m2
16:22 46.2 °F /  7.9 °C 42.8 °F /  6 °C 30.2in /  1021.3hPa ENE 0.9mph /  1.4km/h 4mph /  6.4km/h 88% 0in /  0.0mm 0 W/m2
16:27 46.2 °F /  7.9 °C 42.8 °F /  6 °C 30.2in /  1021.7hPa NE 2.9mph /  4.7km/h 3mph /  4.8km/h 88% 0in /  0.0mm 0 W/m2
16:32 46.2 °F /  7.9 °C 42.8 °F /  6 °C 30.2in /  1021.7hPa NE 0.9mph /  1.4km/h 4mph /  6.4km/h 88% 0in /  0.0mm 0 W/m2
16:37 46.2 °F /  7.9 °C 42.8 °F /  6 °C 30.2in /  1021.7hPa East 2.9mph /  4.7km/h 4mph /  6.4km/h 88% 0in /  0.0mm 0 W/m2
16:42 46 °F /  7.8 °C 43 °F /  6.1 °C 30.2in /  1021.7hPa ENE 0.9mph /  1.4km/h 4mph /  6.4km/h 89% 0in /  0.0mm 0 W/m2
16:47 46 °F /  7.8 °C 43 °F /  6.1 °C 30.2in /  1021.3hPa Calm   3mph /  4.8km/h 89% 0in /  0.0mm 0 W/m2
16:52 46 °F /  7.8 °C 43 °F /  6.1 °C 30.2in /  1021.7hPa East 2.9mph /  4.7km/h 6mph /  9.7km/h 89% 0in /  0.0mm 0 W/m2
16:57 45.9 °F /  7.7 °C 42.8 °F /  6 °C 30.2in /  1021.7hPa ENE 0.9mph /  1.4km/h 2mph /  3.2km/h 89% 0in /  0.0mm 0 W/m2
17:02 45.9 °F /  7.7 °C 42.8 °F /  6 °C 30.2in /  1021.7hPa East 2mph /  3.2km/h 3mph /  4.8km/h 89% 0in /  0.0mm 0 W/m2
17:07 45.9 °F /  7.7 °C 42.8 °F /  6 °C 30.2in /  1021.7hPa East 2.9mph /  4.7km/h 3mph /  4.8km/h 89% 0in /  0.0mm 0 W/m2
17:12 45.9 °F /  7.7 °C 43.2 °F /  6.2 °C 30.2in /  1021.7hPa East 2mph /  3.2km/h 4mph /  6.4km/h 90% 0in /  0.0mm 0 W/m2
17:17 45.7 °F /  7.6 °C 43 °F /  6.1 °C 30.2in /  1021.7hPa NE 0.9mph /  1.4km/h 3mph /  4.8km/h 90% 0in /  0.0mm 0 W/m2
17:22 45.7 °F /  7.6 °C 43 °F /  6.1 °C 30.2in /  1021.7hPa East 0.9mph /  1.4km/h 3mph /  4.8km/h 90% 0in /  0.0mm 0 W/m2
17:27 45.7 °F /  7.6 °C 43 °F /  6.1 °C 30.2in /  1021.7hPa ENE 2mph /  3.2km/h 4mph /  6.4km/h 90% 0in /  0.0mm 0 W/m2
17:32 45.5 °F /  7.5 °C 42.8 °F /  6 °C 30.2in /  1021.7hPa East 2.9mph /  4.7km/h 4mph /  6.4km/h 90% 0in /  0.0mm 0 W/m2
17:37 45.3 °F /  7.4 °C 42.6 °F /  5.9 °C 30.2in /  1021.7hPa NE 2.9mph /  4.7km/h 8mph /  12.9km/h 90% 0in /  0.0mm 0 W/m2
17:42 45.3 °F /  7.4 °C 42.8 °F /  6 °C 30.2in /  1022.0hPa SE 2mph /  3.2km/h 2mph /  3.2km/h 91% 0in /  0.0mm 0 W/m2
17:47 45.3 °F /  7.4 °C 42.8 °F /  6 °C 30.2in /  1022.0hPa NE 2.9mph /  4.7km/h 8mph /  12.9km/h 91% 0in /  0.0mm 0 W/m2
17:52 45.1 °F /  7.3 °C 42.6 °F /  5.9 °C 30.2in /  1022.0hPa NE 0.9mph /  1.4km/h 4mph /  6.4km/h 91% 0in /  0.0mm 0 W/m2
17:57 45.1 °F /  7.3 °C 42.6 °F /  5.9 °C 30.2in /  1022.0hPa ENE 2mph /  3.2km/h 3mph /  4.8km/h 91% 0in /  0.0mm 0 W/m2
18:09 45.1 °F /  7.3 °C 42.6 °F /  5.9 °C 30.2in /  1022.0hPa NE 2.9mph /  4.7km/h 5mph /  8km/h 91% 0in /  0.0mm 0 W/m2
18:17 45.1 °F /  7.3 °C 42.6 °F /  5.9 °C 30.2in /  1021.7hPa ENE 0.9mph /  1.4km/h 4mph /  6.4km/h 91% 0in /  0.0mm 0 W/m2
18:22 45.1 °F /  7.3 °C 42.6 °F /  5.9 °C 30.2in /  1021.7hPa NE 7mph /  11.3km/h 7mph /  11.3km/h 91% 0in /  0.0mm 0 W/m2
18:27 45 °F /  7.2 °C 42.4 °F /  5.8 °C 30.2in /  1022.0hPa ENE 0.9mph /  1.4km/h 3mph /  4.8km/h 91% 0in /  0.0mm 0 W/m2
18:32 45 °F /  7.2 °C 42.4 °F /  5.8 °C 30.2in /  1022.0hPa NE 0.9mph /  1.4km/h 5mph /  8km/h 91% 0in /  0.0mm 0 W/m2
18:37 45 °F /  7.2 °C 42.4 °F /  5.8 °C 30.2in /  1022.0hPa East 2mph /  3.2km/h 3mph /  4.8km/h 91% 0in /  0.0mm 0 W/m2
18:42 45 °F /  7.2 °C 42.4 °F /  5.8 °C 30.2in /  1022.0hPa ESE 2mph /  3.2km/h 2mph /  3.2km/h 91% 0in /  0.0mm 0 W/m2
18:47 45 °F /  7.2 °C 42.4 °F /  5.8 °C 30.2in /  1021.7hPa NE 2mph /  3.2km/h 4mph /  6.4km/h 91% 0in /  0.0mm 0 W/m2
18:52 45 °F /  7.2 °C 42.3 °F /  5.7 °C 30.2in /  1021.7hPa East 2mph /  3.2km/h 3mph /  4.8km/h 90% 0in /  0.0mm 0 W/m2
18:57 45 °F /  7.2 °C 42.3 °F /  5.7 °C 30.2in /  1022.0hPa East 0.9mph /  1.4km/h 2mph /  3.2km/h 90% 0in /  0.0mm 0 W/m2
19:02 45 °F /  7.2 °C 42.3 °F /  5.7 °C 30.2in /  1022.0hPa ENE 2.9mph /  4.7km/h 3mph /  4.8km/h 90% 0in /  0.0mm 0 W/m2
19:07 45 °F /  7.2 °C 42.3 °F /  5.7 °C 30.2in /  1022.0hPa ENE 2mph /  3.2km/h 3mph /  4.8km/h 90% 0in /  0.0mm 0 W/m2
19:12 45 °F /  7.2 °C 42.3 °F /  5.7 °C 30.2in /  1022.0hPa Calm   3mph /  4.8km/h 90% 0in /  0.0mm 0 W/m2
19:17 45 °F /  7.2 °C 42.3 °F /  5.7 °C 30.2in /  1022.0hPa ESE 2.9mph /  4.7km/h 4mph /  6.4km/h 90% 0in /  0.0mm 0 W/m2
19:22 45 °F /  7.2 °C 42.3 °F /  5.7 °C 30.2in /  1022.0hPa Calm   2mph /  3.2km/h 90% 0in /  0.0mm 0 W/m2
19:27 45 °F /  7.2 °C 42.3 °F /  5.7 °C 30.2in /  1022.0hPa East 2mph /  3.2km/h 3mph /  4.8km/h 90% 0in /  0.0mm 0 W/m2
19:32 45 °F /  7.2 °C 42.3 °F /  5.7 °C 30.2in /  1022.0hPa ESE 2.9mph /  4.7km/h 4mph /  6.4km/h 90% 0in /  0.0mm 0 W/m2
19:37 45 °F /  7.2 °C 42.3 °F /  5.7 °C 30.2in /  1022.0hPa NW 0.9mph /  1.4km/h 2mph /  3.2km/h 90% 0in /  0.0mm 0 W/m2
19:42 45 °F /  7.2 °C 42.3 °F /  5.7 °C 30.2in /  1022.0hPa Calm     90% 0in /  0.0mm 0 W/m2
19:47 45 °F /  7.2 °C 42.3 °F /  5.7 °C 30.2in /  1022.0hPa SSE 0.9mph /  1.4km/h 4mph /  6.4km/h 90% 0in /  0.0mm 0 W/m2
19:52 45 °F /  7.2 °C 42.3 °F /  5.7 °C 30.2in /  1022.0hPa NE 0.9mph /  1.4km/h 3mph /  4.8km/h 90% 0in /  0.0mm 0 W/m2
19:58 45 °F /  7.2 °C 42.3 °F /  5.7 °C 30.2in /  1022.0hPa Calm   1mph /  1.6km/h 90% 0in /  0.0mm 0 W/m2
20:03 45 °F /  7.2 °C 42.3 °F /  5.7 °C 30.2in /  1022.0hPa Calm     90% 0in /  0.0mm 0 W/m2
20:08 45 °F /  7.2 °C 42.3 °F /  5.7 °C 30.2in /  1022.4hPa NNE 0.9mph /  1.4km/h 2mph /  3.2km/h 90% 0in /  0.0mm 0 W/m2
20:13 45 °F /  7.2 °C 42.3 °F /  5.7 °C 30.2in /  1022.0hPa Calm     90% 0in /  0.0mm 0 W/m2
20:18 45 °F /  7.2 °C 42.3 °F /  5.7 °C 30.2in /  1022.0hPa Calm   1mph /  1.6km/h 90% 0in /  0.0mm 0 W/m2
20:23 45 °F /  7.2 °C 42.3 °F /  5.7 °C 30.2in /  1022.0hPa Calm     90% 0in /  0.0mm 0 W/m2
20:28 44.8 °F /  7.1 °C 42.3 °F /  5.7 °C 30.2in /  1022.0hPa Calm   2mph /  3.2km/h 91% 0in /  0.0mm 0 W/m2
20:33 44.8 °F /  7.1 °C 42.3 °F /  5.7 °C 30.2in /  1022.0hPa North 2mph /  3.2km/h 2mph /  3.2km/h 91% 0in /  0.0mm 0 W/m2
20:38 44.8 °F /  7.1 °C 42.3 °F /  5.7 °C 30.2in /  1022.0hPa Calm     91% 0in /  0.0mm 0 W/m2
20:43 44.6 °F /  7 °C 42.1 °F /  5.6 °C 30.2in /  1022.4hPa Calm   1mph /  1.6km/h 91% 0in /  0.0mm 0 W/m2
20:48 44.6 °F /  7 °C 42.1 °F /  5.6 °C 30.2in /  1022.4hPa Calm   1mph /  1.6km/h 91% 0in /  0.0mm 0 W/m2
20:53 44.4 °F /  6.9 °C 41.9 °F /  5.5 °C 30.2in /  1022.4hPa NE 2.9mph /  4.7km/h 3mph /  4.8km/h 91% 0in /  0.0mm 0 W/m2
20:58 44.6 °F /  7 °C 42.1 °F /  5.6 °C 30.2in /  1022.4hPa Calm     91% 0in /  0.0mm 0 W/m2
21:03 44.4 °F /  6.9 °C 41.9 °F /  5.5 °C 30.2in /  1022.4hPa Calm   1mph /  1.6km/h 91% 0in /  0.0mm 0 W/m2
21:08 44.4 °F /  6.9 °C 42.3 °F /  5.7 °C 30.2in /  1022.4hPa Calm   1mph /  1.6km/h 92% 0in /  0.0mm 0 W/m2
21:13 44.4 °F /  6.9 °C 42.3 °F /  5.7 °C 30.2in /  1022.4hPa Calm   2mph /  3.2km/h 92% 0in /  0.0mm 0 W/m2
21:18 44.4 °F /  6.9 °C 42.3 °F /  5.7 °C 30.2in /  1022.4hPa NNE 0.9mph /  1.4km/h 3mph /  4.8km/h 92% 0in /  0.0mm 0 W/m2
21:23 44.4 °F /  6.9 °C 42.3 °F /  5.7 °C 30.2in /  1022.4hPa NE 0.9mph /  1.4km/h 4mph /  6.4km/h 92% 0in /  0.0mm 0 W/m2
21:28 44.4 °F /  6.9 °C 42.3 °F /  5.7 °C 30.2in /  1022.4hPa ENE 0.9mph /  1.4km/h 2mph /  3.2km/h 92% 0in /  0.0mm 0 W/m2
21:33 44.4 °F /  6.9 °C 42.3 °F /  5.7 °C 30.2in /  1022.7hPa ENE 0.9mph /  1.4km/h 2mph /  3.2km/h 92% 0in /  0.0mm 0 W/m2
21:38 44.4 °F /  6.9 °C 42.3 °F /  5.7 °C 30.2in /  1022.7hPa ENE 0.9mph /  1.4km/h 1mph /  1.6km/h 92% 0in /  0.0mm 0 W/m2
21:43 44.4 °F /  6.9 °C 42.3 °F /  5.7 °C 30.2in /  1022.4hPa Calm   1mph /  1.6km/h 92% 0in /  0.0mm 0 W/m2
21:48 44.4 °F /  6.9 °C 42.3 °F /  5.7 °C 30.2in /  1022.4hPa ENE 0.9mph /  1.4km/h 2mph /  3.2km/h 92% 0in /  0.0mm 0 W/m2
21:53 44.2 °F /  6.8 °C 42.1 °F /  5.6 °C 30.2in /  1022.4hPa NE 0.9mph /  1.4km/h 2mph /  3.2km/h 92% 0in /  0.0mm 0 W/m2
21:58 44.2 °F /  6.8 °C 42.1 °F /  5.6 °C 30.2in /  1022.7hPa Calm   1mph /  1.6km/h 92% 0in /  0.0mm 0 W/m2
22:03 44.2 °F /  6.8 °C 42.1 °F /  5.6 °C 30.2in /  1022.4hPa Calm   1mph /  1.6km/h 92% 0in /  0.0mm 0 W/m2
22:08 44.1 °F /  6.7 °C 41.9 °F /  5.5 °C 30.2in /  1022.7hPa Calm     92% 0in /  0.0mm 0 W/m2
22:13 44.1 °F /  6.7 °C 41.9 °F /  5.5 °C 30.2in /  1022.4hPa NNE 2mph /  3.2km/h 2mph /  3.2km/h 92% 0in /  0.0mm 0 W/m2
22:18 44.1 °F /  6.7 °C 41.9 °F /  5.5 °C 30.2in /  1022.7hPa Calm   1mph /  1.6km/h 92% 0in /  0.0mm 0 W/m2
22:23 44.1 °F /  6.7 °C 41.9 °F /  5.5 °C 30.2in /  1022.7hPa NNE 0.9mph /  1.4km/h 2mph /  3.2km/h 92% 0in /  0.0mm 0 W/m2
22:28 44.1 °F /  6.7 °C 41.9 °F /  5.5 °C 30.2in /  1022.7hPa NE 0.9mph /  1.4km/h 2mph /  3.2km/h 92% 0in /  0.0mm 0 W/m2
22:33 44.1 °F /  6.7 °C 41.9 °F /  5.5 °C 30.2in /  1022.7hPa Calm     92% 0in /  0.0mm 0 W/m2
22:38 44.1 °F /  6.7 °C 41.9 °F /  5.5 °C 30.2in /  1022.7hPa Calm   1mph /  1.6km/h 92% 0in /  0.0mm 0 W/m2
22:43 43.9 °F /  6.6 °C 41.7 °F /  5.4 °C 30.2in /  1022.7hPa ESE 0.9mph /  1.4km/h 2mph /  3.2km/h 92% 0in /  0.0mm 0 W/m2
22:48 43.9 °F /  6.6 °C 41.7 °F /  5.4 °C 30.2in /  1022.7hPa NE 0.9mph /  1.4km/h 2mph /  3.2km/h 92% 0in /  0.0mm 0 W/m2
22:53 43.9 °F /  6.6 °C 41.7 °F /  5.4 °C 30.2in /  1022.7hPa Calm     92% 0in /  0.0mm 0 W/m2
22:58 43.9 °F /  6.6 °C 41.7 °F /  5.4 °C 30.2in /  1022.7hPa Calm   2mph /  3.2km/h 92% 0in /  0.0mm 0 W/m2
23:03 43.9 °F /  6.6 °C 41.7 °F /  5.4 °C 30.2in /  1022.7hPa Calm   3mph /  4.8km/h 92% 0in /  0.0mm 0 W/m2
23:08 43.7 °F /  6.5 °C 41.7 °F /  5.4 °C 30.2in /  1022.7hPa Calm   2mph /  3.2km/h 93% 0in /  0.0mm 0 W/m2
23:13 43.7 °F /  6.5 °C 41.7 °F /  5.4 °C 30.2in /  1022.7hPa East 2mph /  3.2km/h 2mph /  3.2km/h 93% 0in /  0.0mm 0 W/m2
23:18 43.7 °F /  6.5 °C 41.7 °F /  5.4 °C 30.2in /  1022.7hPa East 0.9mph /  1.4km/h 3mph /  4.8km/h 93% 0in /  0.0mm 0 W/m2
23:23 43.5 °F /  6.4 °C 41.7 °F /  5.4 °C 30.2in /  1022.7hPa NE 0.9mph /  1.4km/h 5mph /  8km/h 93% 0in /  0.0mm 0 W/m2
23:28 43.5 °F /  6.4 °C 41.7 °F /  5.4 °C 30.2in /  1022.7hPa Calm   3mph /  4.8km/h 93% 0in /  0.0mm 0 W/m2
23:33 43.5 °F /  6.4 °C 41.7 °F /  5.4 °C 30.2in /  1022.7hPa NE 0.9mph /  1.4km/h 5mph /  8km/h 93% 0in /  0.0mm 0 W/m2
23:38 43.5 °F /  6.4 °C 41.7 °F /  5.4 °C 30.2in /  1022.7hPa Calm   4mph /  6.4km/h 93% 0in /  0.0mm 0 W/m2
23:43 43.5 °F /  6.4 °C 41.7 °F /  5.4 °C 30.2in /  1022.7hPa Calm   4mph /  6.4km/h 93% 0in /  0.0mm 0 W/m2
23:48 43.5 °F /  6.4 °C 41.7 °F /  5.4 °C 30.2in /  1022.7hPa NW 0.9mph /  1.4km/h 3mph /  4.8km/h 93% 0in /  0.0mm 0 W/m2
23:53 43.5 °F /  6.4 °C 41.7 °F /  5.4 °C 30.2in /  1022.7hPa Calm   2mph /  3.2km/h 93% 0in /  0.0mm 0 W/m2
23:58 43.3 °F /  6.3 °C 41.5 °F /  5.3 °C 30.2in /  1022.7hPa Calm   2mph /  3.2km/h 93% 0in /  0.0mm 0 W/m2
Juneau County Weather
Compliments of Weather Underground - 4 mb